sensor_id;sensor_type;location;lat;lon;timestamp;P1;durP1;ratioP1;P2;durP2;ratioP2
17253;SDS011;32542;52.832;13.816;2024-03-06T00:00:38;3.15;;;2.70;;
17253;SDS011;32542;52.832;13.816;2024-03-06T00:03:41;3.70;;;3.15;;
17253;SDS011;32542;52.832;13.816;2024-03-06T00:06:45;3.70;;;2.90;;
17253;SDS011;32542;52.832;13.816;2024-03-06T00:09:48;3.75;;;2.83;;
17253;SDS011;32542;52.832;13.816;2024-03-06T00:12:50;3.15;;;2.40;;
17253;SDS011;32542;52.832;13.816;2024-03-06T00:15:53;2.90;;;2.63;;
17253;SDS011;32542;52.832;13.816;2024-03-06T00:18:56;4.63;;;3.20;;
17253;SDS011;32542;52.832;13.816;2024-03-06T00:22:00;3.33;;;2.83;;
17253;SDS011;32542;52.832;13.816;2024-03-06T00:25:04;2.60;;;2.40;;
17253;SDS011;32542;52.832;13.816;2024-03-06T00:28:07;3.45;;;2.97;;
17253;SDS011;32542;52.832;13.816;2024-03-06T00:31:10;4.57;;;3.00;;
17253;SDS011;32542;52.832;13.816;2024-03-06T00:34:13;4.82;;;3.08;;
17253;SDS011;32542;52.832;13.816;2024-03-06T00:37:17;3.70;;;2.92;;
17253;SDS011;32542;52.832;13.816;2024-03-06T00:40:20;3.78;;;3.00;;
17253;SDS011;32542;52.832;13.816;2024-03-06T00:43:23;3.35;;;3.05;;
17253;SDS011;32542;52.832;13.816;2024-03-06T00:46:26;2.83;;;2.53;;
17253;SDS011;32542;52.832;13.816;2024-03-06T00:49:29;3.42;;;2.70;;
17253;SDS011;32542;52.832;13.816;2024-03-06T00:52:33;3.38;;;2.75;;
17253;SDS011;32542;52.832;13.816;2024-03-06T00:55:36;3.00;;;2.67;;
17253;SDS011;32542;52.832;13.816;2024-03-06T00:58:39;3.03;;;2.70;;
17253;SDS011;32542;52.832;13.816;2024-03-06T01:01:42;2.85;;;2.55;;
17253;SDS011;32542;52.832;13.816;2024-03-06T01:04:45;4.00;;;2.60;;
17253;SDS011;32542;52.832;13.816;2024-03-06T01:07:49;3.13;;;2.53;;
17253;SDS011;32542;52.832;13.816;2024-03-06T01:10:52;2.90;;;2.53;;
17253;SDS011;32542;52.832;13.816;2024-03-06T01:13:55;3.60;;;2.90;;
17253;SDS011;32542;52.832;13.816;2024-03-06T01:16:58;3.38;;;2.90;;
17253;SDS011;32542;52.832;13.816;2024-03-06T01:20:01;2.60;;;2.40;;
17253;SDS011;32542;52.832;13.816;2024-03-06T01:23:09;2.85;;;2.58;;
17253;SDS011;32542;52.832;13.816;2024-03-06T01:26:12;3.00;;;2.70;;
17253;SDS011;32542;52.832;13.816;2024-03-06T01:29:15;3.72;;;2.55;;
17253;SDS011;32542;52.832;13.816;2024-03-06T01:32:19;2.95;;;2.55;;
17253;SDS011;32542;52.832;13.816;2024-03-06T01:35:22;3.30;;;2.83;;
17253;SDS011;32542;52.832;13.816;2024-03-06T01:38:27;3.40;;;2.60;;
17253;SDS011;32542;52.832;13.816;2024-03-06T01:41:30;2.80;;;2.50;;
17253;SDS011;32542;52.832;13.816;2024-03-06T01:44:33;3.63;;;2.50;;
17253;SDS011;32542;52.832;13.816;2024-03-06T01:47:36;3.22;;;2.90;;
17253;SDS011;32542;52.832;13.816;2024-03-06T01:50:38;3.45;;;2.95;;
17253;SDS011;32542;52.832;13.816;2024-03-06T01:53:43;3.20;;;2.90;;
17253;SDS011;32542;52.832;13.816;2024-03-06T01:56:46;3.33;;;3.00;;
17253;SDS011;32542;52.832;13.816;2024-03-06T01:59:51;4.03;;;2.88;;
17253;SDS011;32542;52.832;13.816;2024-03-06T02:02:54;3.22;;;2.92;;
17253;SDS011;32542;52.832;13.816;2024-03-06T02:05:57;3.10;;;2.80;;
17253;SDS011;32542;52.832;13.816;2024-03-06T02:09:01;3.20;;;2.90;;
17253;SDS011;32542;52.832;13.816;2024-03-06T02:12:05;3.40;;;2.85;;
17253;SDS011;32542;52.832;13.816;2024-03-06T02:15:09;3.22;;;2.63;;
17253;SDS011;32542;52.832;13.816;2024-03-06T02:18:13;4.78;;;2.95;;
17253;SDS011;32542;52.832;13.816;2024-03-06T02:21:18;3.17;;;2.65;;
17253;SDS011;32542;52.832;13.816;2024-03-06T02:24:21;4.10;;;3.00;;
17253;SDS011;32542;52.832;13.816;2024-03-06T02:27:24;4.10;;;3.00;;
17253;SDS011;32542;52.832;13.816;2024-03-06T02:30:27;3.38;;;2.85;;
17253;SDS011;32542;52.832;13.816;2024-03-06T02:33:31;5.18;;;3.05;;
17253;SDS011;32542;52.832;13.816;2024-03-06T02:36:36;3.55;;;2.90;;
17253;SDS011;32542;52.832;13.816;2024-03-06T02:39:39;4.25;;;2.80;;
17253;SDS011;32542;52.832;13.816;2024-03-06T02:42:42;3.35;;;2.75;;
17253;SDS011;32542;52.832;13.816;2024-03-06T02:45:45;3.22;;;2.80;;
17253;SDS011;32542;52.832;13.816;2024-03-06T02:48:48;3.05;;;2.53;;
17253;SDS011;32542;52.832;13.816;2024-03-06T02:51:53;2.60;;;2.30;;
17253;SDS011;32542;52.832;13.816;2024-03-06T02:54:56;2.88;;;2.47;;
17253;SDS011;32542;52.832;13.816;2024-03-06T02:58:01;3.53;;;2.90;;
17253;SDS011;32542;52.832;13.816;2024-03-06T03:01:04;3.45;;;3.03;;
17253;SDS011;32542;52.832;13.816;2024-03-06T03:04:07;3.20;;;2.58;;
17253;SDS011;32542;52.832;13.816;2024-03-06T03:07:11;2.83;;;2.60;;
17253;SDS011;32542;52.832;13.816;2024-03-06T03:10:14;3.13;;;2.78;;
17253;SDS011;32542;52.832;13.816;2024-03-06T03:13:17;2.95;;;2.65;;
17253;SDS011;32542;52.832;13.816;2024-03-06T03:16:19;3.80;;;2.70;;
17253;SDS011;32542;52.832;13.816;2024-03-06T03:19:22;3.22;;;2.90;;
17253;SDS011;32542;52.832;13.816;2024-03-06T03:22:26;3.05;;;2.70;;
17253;SDS011;32542;52.832;13.816;2024-03-06T03:25:29;4.18;;;2.90;;
17253;SDS011;32542;52.832;13.816;2024-03-06T03:28:32;3.13;;;2.60;;
17253;SDS011;32542;52.832;13.816;2024-03-06T03:31:35;2.95;;;2.60;;
17253;SDS011;32542;52.832;13.816;2024-03-06T03:34:39;3.70;;;3.05;;
17253;SDS011;32542;52.832;13.816;2024-03-06T03:37:44;2.75;;;2.47;;
17253;SDS011;32542;52.832;13.816;2024-03-06T03:40:47;4.18;;;3.20;;
17253;SDS011;32542;52.832;13.816;2024-03-06T03:43:49;3.00;;;2.53;;
17253;SDS011;32542;52.832;13.816;2024-03-06T03:46:52;3.40;;;2.60;;
17253;SDS011;32542;52.832;13.816;2024-03-06T03:49:55;3.10;;;2.80;;
17253;SDS011;32542;52.832;13.816;2024-03-06T03:53:11;3.95;;;2.90;;
17253;SDS011;32542;52.832;13.816;2024-03-06T03:56:14;2.75;;;2.55;;
17253;SDS011;32542;52.832;13.816;2024-03-06T03:59:17;3.50;;;2.78;;
17253;SDS011;32542;52.832;13.816;2024-03-06T04:02:20;2.75;;;2.50;;
17253;SDS011;32542;52.832;13.816;2024-03-06T04:05:24;3.05;;;2.75;;
17253;SDS011;32542;52.832;13.816;2024-03-06T04:08:29;2.95;;;2.65;;
17253;SDS011;32542;52.832;13.816;2024-03-06T04:11:32;3.35;;;2.55;;
17253;SDS011;32542;52.832;13.816;2024-03-06T04:14:37;3.63;;;2.45;;
17253;SDS011;32542;52.832;13.816;2024-03-06T04:17:41;3.45;;;2.78;;
17253;SDS011;32542;52.832;13.816;2024-03-06T04:20:44;4.15;;;2.80;;
17253;SDS011;32542;52.832;13.816;2024-03-06T04:23:48;2.80;;;2.50;;
17253;SDS011;32542;52.832;13.816;2024-03-06T04:26:51;3.10;;;2.80;;
17253;SDS011;32542;52.832;13.816;2024-03-06T04:29:54;3.88;;;2.58;;
17253;SDS011;32542;52.832;13.816;2024-03-06T04:32:57;2.88;;;2.58;;
17253;SDS011;32542;52.832;13.816;2024-03-06T04:36:00;3.15;;;2.50;;
17253;SDS011;32542;52.832;13.816;2024-03-06T04:39:05;2.90;;;2.60;;
17253;SDS011;32542;52.832;13.816;2024-03-06T04:42:09;3.17;;;2.85;;
17253;SDS011;32542;52.832;13.816;2024-03-06T04:45:13;3.58;;;2.78;;
17253;SDS011;32542;52.832;13.816;2024-03-06T04:48:17;2.80;;;2.47;;
17253;SDS011;32542;52.832;13.816;2024-03-06T04:51:20;2.60;;;2.40;;
17253;SDS011;32542;52.832;13.816;2024-03-06T04:54:24;3.45;;;2.70;;
17253;SDS011;32542;52.832;13.816;2024-03-06T04:57:27;3.17;;;2.63;;
17253;SDS011;32542;52.832;13.816;2024-03-06T05:00:30;3.60;;;2.85;;
17253;SDS011;32542;52.832;13.816;2024-03-06T05:03:33;3.55;;;2.88;;
17253;SDS011;32542;52.832;13.816;2024-03-06T05:06:53;2.70;;;2.45;;
17253;SDS011;32542;52.832;13.816;2024-03-06T05:10:14;3.00;;;2.70;;
17253;SDS011;32542;52.832;13.816;2024-03-06T05:13:35;3.03;;;2.72;;
17253;SDS011;32542;52.832;13.816;2024-03-06T05:16:55;3.65;;;2.75;;
17253;SDS011;32542;52.832;13.816;2024-03-06T05:20:15;3.00;;;2.42;;
17253;SDS011;32542;52.832;13.816;2024-03-06T05:23:36;3.03;;;2.65;;
17253;SDS011;32542;52.832;13.816;2024-03-06T05:26:57;5.53;;;2.83;;
17253;SDS011;32542;52.832;13.816;2024-03-06T05:30:18;3.80;;;3.10;;
17253;SDS011;32542;52.832;13.816;2024-03-06T05:33:38;2.78;;;2.47;;
17253;SDS011;32542;52.832;13.816;2024-03-06T05:36:58;3.30;;;2.85;;
17253;SDS011;32542;52.832;13.816;2024-03-06T05:40:18;3.13;;;2.55;;
17253;SDS011;32542;52.832;13.816;2024-03-06T05:43:40;2.95;;;2.65;;
17253;SDS011;32542;52.832;13.816;2024-03-06T05:47:01;3.25;;;2.85;;
17253;SDS011;32542;52.832;13.816;2024-03-06T05:50:22;2.72;;;2.53;;
17253;SDS011;32542;52.832;13.816;2024-03-06T05:53:42;2.58;;;2.38;;
17253;SDS011;32542;52.832;13.816;2024-03-06T05:57:02;3.28;;;2.85;;
17253;SDS011;32542;52.832;13.816;2024-03-06T06:00:24;2.90;;;2.60;;
17253;SDS011;32542;52.832;13.816;2024-03-06T06:03:27;2.88;;;2.55;;
17253;SDS011;32542;52.832;13.816;2024-03-06T06:06:30;4.55;;;2.90;;
17253;SDS011;32542;52.832;13.816;2024-03-06T06:09:33;2.90;;;2.60;;
17253;SDS011;32542;52.832;13.816;2024-03-06T06:12:36;3.22;;;2.92;;
17253;SDS011;32542;52.832;13.816;2024-03-06T06:15:40;3.47;;;2.60;;
17253;SDS011;32542;52.832;13.816;2024-03-06T06:18:43;4.05;;;2.80;;
17253;SDS011;32542;52.832;13.816;2024-03-06T06:21:45;3.15;;;2.58;;
17253;SDS011;32542;52.832;13.816;2024-03-06T06:24:49;2.70;;;2.45;;
17253;SDS011;32542;52.832;13.816;2024-03-06T06:27:52;2.83;;;2.53;;
17253;SDS011;32542;52.832;13.816;2024-03-06T06:30:57;2.97;;;2.67;;
17253;SDS011;32542;52.832;13.816;2024-03-06T06:34:00;3.22;;;2.70;;
17253;SDS011;32542;52.832;13.816;2024-03-06T06:37:03;2.95;;;2.55;;
17253;SDS011;32542;52.832;13.816;2024-03-06T06:40:06;4.70;;;2.72;;
17253;SDS011;32542;52.832;13.816;2024-03-06T06:43:10;3.00;;;2.70;;
17253;SDS011;32542;52.832;13.816;2024-03-06T06:46:14;3.45;;;2.85;;
17253;SDS011;32542;52.832;13.816;2024-03-06T06:49:18;2.97;;;2.25;;
17253;SDS011;32542;52.832;13.816;2024-03-06T06:52:21;2.80;;;2.20;;
17253;SDS011;32542;52.832;13.816;2024-03-06T06:55:24;4.32;;;2.70;;
17253;SDS011;32542;52.832;13.816;2024-03-06T06:58:27;3.08;;;2.40;;
17253;SDS011;32542;52.832;13.816;2024-03-06T07:01:31;3.47;;;3.10;;
17253;SDS011;32542;52.832;13.816;2024-03-06T07:04:35;3.70;;;3.30;;
17253;SDS011;32542;52.832;13.816;2024-03-06T07:07:38;5.07;;;3.58;;
17253;SDS011;32542;52.832;13.816;2024-03-06T07:10:41;4.45;;;3.80;;
17253;SDS011;32542;52.832;13.816;2024-03-06T07:13:44;7.20;;;4.05;;
17253;SDS011;32542;52.832;13.816;2024-03-06T07:16:48;5.50;;;4.40;;
17253;SDS011;32542;52.832;13.816;2024-03-06T07:19:51;7.78;;;4.40;;
17253;SDS011;32542;52.832;13.816;2024-03-06T07:22:54;5.65;;;4.65;;
17253;SDS011;32542;52.832;13.816;2024-03-06T07:25:57;9.00;;;5.10;;
17253;SDS011;32542;52.832;13.816;2024-03-06T07:29:01;7.82;;;4.80;;
17253;SDS011;32542;52.832;13.816;2024-03-06T07:32:05;6.95;;;4.55;;
17253;SDS011;32542;52.832;13.816;2024-03-06T07:35:09;4.90;;;3.75;;
17253;SDS011;32542;52.832;13.816;2024-03-06T07:38:12;4.60;;;3.78;;
17253;SDS011;32542;52.832;13.816;2024-03-06T07:41:15;7.00;;;3.83;;
17253;SDS011;32542;52.832;13.816;2024-03-06T07:44:18;4.65;;;3.58;;
17253;SDS011;32542;52.832;13.816;2024-03-06T07:47:22;7.88;;;3.45;;
17253;SDS011;32542;52.832;13.816;2024-03-06T07:50:26;3.65;;;3.00;;
17253;SDS011;32542;52.832;13.816;2024-03-06T07:53:28;4.63;;;3.40;;
17253;SDS011;32542;52.832;13.816;2024-03-06T07:56:31;3.47;;;3.03;;
17253;SDS011;32542;52.832;13.816;2024-03-06T07:59:34;7.40;;;3.42;;
17253;SDS011;32542;52.832;13.816;2024-03-06T08:02:39;5.47;;;3.50;;
17253;SDS011;32542;52.832;13.816;2024-03-06T08:05:44;3.85;;;3.33;;
17253;SDS011;32542;52.832;13.816;2024-03-06T08:08:47;4.50;;;2.80;;
17253;SDS011;32542;52.832;13.816;2024-03-06T08:11:50;6.05;;;3.40;;
17253;SDS011;32542;52.832;13.816;2024-03-06T08:14:55;5.55;;;3.45;;
17253;SDS011;32542;52.832;13.816;2024-03-06T08:18:00;5.38;;;3.40;;
17253;SDS011;32542;52.832;13.816;2024-03-06T08:21:03;5.50;;;3.42;;
17253;SDS011;32542;52.832;13.816;2024-03-06T08:24:07;4.45;;;3.60;;
17253;SDS011;32542;52.832;13.816;2024-03-06T08:27:10;4.47;;;3.30;;
17253;SDS011;32542;52.832;13.816;2024-03-06T08:30:13;5.28;;;3.30;;
17253;SDS011;32542;52.832;13.816;2024-03-06T08:33:17;5.00;;;3.75;;
17253;SDS011;32542;52.832;13.816;2024-03-06T08:36:22;3.40;;;2.95;;
17253;SDS011;32542;52.832;13.816;2024-03-06T08:39:25;5.68;;;3.72;;
17253;SDS011;32542;52.832;13.816;2024-03-06T08:42:28;4.35;;;3.28;;
17253;SDS011;32542;52.832;13.816;2024-03-06T08:45:31;3.70;;;3.08;;
17253;SDS011;32542;52.832;13.816;2024-03-06T08:48:35;5.18;;;3.30;;
17253;SDS011;32542;52.832;13.816;2024-03-06T08:51:38;4.05;;;3.08;;
17253;SDS011;32542;52.832;13.816;2024-03-06T08:54:41;4.80;;;3.25;;
17253;SDS011;32542;52.832;13.816;2024-03-06T08:57:44;3.28;;;2.58;;
17253;SDS011;32542;52.832;13.816;2024-03-06T09:00:47;3.38;;;3.03;;
17253;SDS011;32542;52.832;13.816;2024-03-06T09:03:52;4.10;;;3.13;;
17253;SDS011;32542;52.832;13.816;2024-03-06T09:06:54;5.07;;;3.15;;
17253;SDS011;32542;52.832;13.816;2024-03-06T09:09:57;4.22;;;3.28;;
17253;SDS011;32542;52.832;13.816;2024-03-06T09:13:00;4.47;;;3.05;;
17253;SDS011;32542;52.832;13.816;2024-03-06T09:16:03;3.92;;;3.08;;
17253;SDS011;32542;52.832;13.816;2024-03-06T09:19:07;3.97;;;3.20;;
17253;SDS011;32542;52.832;13.816;2024-03-06T09:22:10;3.50;;;3.08;;
17253;SDS011;32542;52.832;13.816;2024-03-06T09:25:13;3.95;;;3.05;;
17253;SDS011;32542;52.832;13.816;2024-03-06T09:28:17;3.30;;;3.00;;
17253;SDS011;32542;52.832;13.816;2024-03-06T09:31:20;5.03;;;3.08;;
17253;SDS011;32542;52.832;13.816;2024-03-06T09:34:24;3.70;;;3.00;;
17253;SDS011;32542;52.832;13.816;2024-03-06T09:37:27;3.25;;;2.95;;
17253;SDS011;32542;52.832;13.816;2024-03-06T09:40:30;5.25;;;3.30;;
17253;SDS011;32542;52.832;13.816;2024-03-06T09:43:33;4.25;;;3.05;;
17253;SDS011;32542;52.832;13.816;2024-03-06T09:46:36;3.38;;;2.92;;
17253;SDS011;32542;52.832;13.816;2024-03-06T09:49:40;6.50;;;3.40;;
17253;SDS011;32542;52.832;13.816;2024-03-06T09:52:44;3.85;;;3.25;;
17253;SDS011;32542;52.832;13.816;2024-03-06T09:55:49;5.32;;;3.20;;
17253;SDS011;32542;52.832;13.816;2024-03-06T09:58:52;4.63;;;2.97;;
17253;SDS011;32542;52.832;13.816;2024-03-06T10:01:56;5.68;;;2.92;;
17253;SDS011;32542;52.832;13.816;2024-03-06T10:05:01;6.85;;;3.00;;
17253;SDS011;32542;52.832;13.816;2024-03-06T10:08:04;7.72;;;3.42;;
17253;SDS011;32542;52.832;13.816;2024-03-06T10:11:08;7.72;;;3.60;;
17253;SDS011;32542;52.832;13.816;2024-03-06T10:14:12;7.25;;;3.35;;
17253;SDS011;32542;52.832;13.816;2024-03-06T10:17:18;8.30;;;3.47;;
17253;SDS011;32542;52.832;13.816;2024-03-06T10:20:26;9.68;;;3.20;;
17253;SDS011;32542;52.832;13.816;2024-03-06T10:23:30;5.53;;;3.25;;
17253;SDS011;32542;52.832;13.816;2024-03-06T10:26:33;8.93;;;3.70;;
17253;SDS011;32542;52.832;13.816;2024-03-06T10:29:35;7.15;;;3.10;;
17253;SDS011;32542;52.832;13.816;2024-03-06T10:32:38;7.20;;;3.15;;
17253;SDS011;32542;52.832;13.816;2024-03-06T10:35:43;4.30;;;3.10;;
17253;SDS011;32542;52.832;13.816;2024-03-06T10:38:47;5.65;;;3.33;;
17253;SDS011;32542;52.832;13.816;2024-03-06T10:41:54;3.90;;;3.28;;
17253;SDS011;32542;52.832;13.816;2024-03-06T10:44:58;5.57;;;3.30;;
17253;SDS011;32542;52.832;13.816;2024-03-06T10:48:03;4.28;;;3.72;;
17253;SDS011;32542;52.832;13.816;2024-03-06T10:51:08;4.80;;;3.63;;
17253;SDS011;32542;52.832;13.816;2024-03-06T10:54:15;4.45;;;3.42;;
17253;SDS011;32542;52.832;13.816;2024-03-06T10:57:18;5.47;;;3.53;;
17253;SDS011;32542;52.832;13.816;2024-03-06T11:00:22;8.10;;;3.47;;
17253;SDS011;32542;52.832;13.816;2024-03-06T11:03:28;12.63;;;5.60;;
17253;SDS011;32542;52.832;13.816;2024-03-06T11:06:34;10.10;;;5.40;;
17253;SDS011;32542;52.832;13.816;2024-03-06T11:09:37;10.18;;;4.57;;
17253;SDS011;32542;52.832;13.816;2024-03-06T11:12:40;6.93;;;4.75;;
17253;SDS011;32542;52.832;13.816;2024-03-06T11:15:50;7.93;;;4.72;;
17253;SDS011;32542;52.832;13.816;2024-03-06T11:19:04;8.05;;;4.50;;
17253;SDS011;32542;52.832;13.816;2024-03-06T11:22:09;8.85;;;4.57;;
17253;SDS011;32542;52.832;13.816;2024-03-06T11:25:27;12.02;;;5.30;;
17253;SDS011;32542;52.832;13.816;2024-03-06T11:29:00;17.25;;;5.30;;
17253;SDS011;32542;52.832;13.816;2024-03-06T11:32:05;13.23;;;5.30;;
17253;SDS011;32542;52.832;13.816;2024-03-06T11:35:11;14.23;;;5.28;;
17253;SDS011;32542;52.832;13.816;2024-03-06T11:38:17;13.25;;;4.85;;
17253;SDS011;32542;52.832;13.816;2024-03-06T11:41:23;19.25;;;5.20;;
17253;SDS011;32542;52.832;13.816;2024-03-06T11:44:27;18.60;;;5.40;;
17253;SDS011;32542;52.832;13.816;2024-03-06T11:47:31;16.45;;;6.07;;
17253;SDS011;32542;52.832;13.816;2024-03-06T11:50:34;19.90;;;6.00;;
17253;SDS011;32542;52.832;13.816;2024-03-06T11:53:39;17.77;;;5.28;;
17253;SDS011;32542;52.832;13.816;2024-03-06T11:56:46;21.92;;;5.50;;
17253;SDS011;32542;52.832;13.816;2024-03-06T11:59:49;25.45;;;5.85;;
17253;SDS011;32542;52.832;13.816;2024-03-06T12:02:52;22.02;;;5.18;;
17253;SDS011;32542;52.832;13.816;2024-03-06T12:05:55;22.23;;;5.53;;
17253;SDS011;32542;52.832;13.816;2024-03-06T12:08:59;24.90;;;5.50;;
17253;SDS011;32542;52.832;13.816;2024-03-06T12:12:02;17.02;;;5.85;;
17253;SDS011;32542;52.832;13.816;2024-03-06T12:15:05;12.85;;;5.70;;
17253;SDS011;32542;52.832;13.816;2024-03-06T12:18:12;17.10;;;6.20;;
17253;SDS011;32542;52.832;13.816;2024-03-06T12:21:15;23.02;;;6.45;;
17253;SDS011;32542;52.832;13.816;2024-03-06T12:24:20;17.45;;;6.28;;
17253;SDS011;32542;52.832;13.816;2024-03-06T12:27:24;22.75;;;6.28;;
17253;SDS011;32542;52.832;13.816;2024-03-06T12:30:27;19.60;;;6.68;;
17253;SDS011;32542;52.832;13.816;2024-03-06T12:33:31;14.68;;;6.60;;
17253;SDS011;32542;52.832;13.816;2024-03-06T12:36:35;19.08;;;6.28;;
17253;SDS011;32542;52.832;13.816;2024-03-06T12:39:39;21.52;;;6.68;;
17253;SDS011;32542;52.832;13.816;2024-03-06T12:42:44;16.92;;;6.47;;
17253;SDS011;32542;52.832;13.816;2024-03-06T12:45:47;16.20;;;6.70;;
17253;SDS011;32542;52.832;13.816;2024-03-06T12:48:50;13.23;;;6.32;;
17253;SDS011;32542;52.832;13.816;2024-03-06T12:51:53;14.80;;;6.15;;
17253;SDS011;32542;52.832;13.816;2024-03-06T12:54:57;14.07;;;6.13;;
17253;SDS011;32542;52.832;13.816;2024-03-06T12:58:00;17.00;;;7.18;;
17253;SDS011;32542;52.832;13.816;2024-03-06T13:01:03;13.65;;;6.22;;
17253;SDS011;32542;52.832;13.816;2024-03-06T13:04:07;18.83;;;6.05;;
17253;SDS011;32542;52.832;13.816;2024-03-06T13:07:13;12.98;;;6.43;;
17253;SDS011;32542;52.832;13.816;2024-03-06T13:10:18;13.98;;;6.43;;
17253;SDS011;32542;52.832;13.816;2024-03-06T13:13:23;14.80;;;5.65;;
17253;SDS011;32542;52.832;13.816;2024-03-06T13:16:26;10.93;;;6.00;;
17253;SDS011;32542;52.832;13.816;2024-03-06T13:19:29;16.17;;;6.25;;
17253;SDS011;32542;52.832;13.816;2024-03-06T13:22:32;14.80;;;6.75;;
17253;SDS011;32542;52.832;13.816;2024-03-06T13:25:36;14.20;;;6.63;;
17253;SDS011;32542;52.832;13.816;2024-03-06T13:28:39;12.80;;;6.40;;
17253;SDS011;32542;52.832;13.816;2024-03-06T13:31:42;13.77;;;6.22;;
17253;SDS011;32542;52.832;13.816;2024-03-06T13:34:45;15.48;;;7.10;;
17253;SDS011;32542;52.832;13.816;2024-03-06T13:37:48;12.65;;;6.38;;
17253;SDS011;32542;52.832;13.816;2024-03-06T13:40:52;11.82;;;6.78;;
17253;SDS011;32542;52.832;13.816;2024-03-06T13:43:55;13.55;;;6.90;;
17253;SDS011;32542;52.832;13.816;2024-03-06T13:46:58;19.00;;;7.18;;
17253;SDS011;32542;52.832;13.816;2024-03-06T13:50:01;12.95;;;6.50;;
17253;SDS011;32542;52.832;13.816;2024-03-06T13:53:04;13.95;;;7.53;;
17253;SDS011;32542;52.832;13.816;2024-03-06T13:56:08;12.98;;;6.82;;
17253;SDS011;32542;52.832;13.816;2024-03-06T13:59:11;14.85;;;6.60;;
17253;SDS011;32542;52.832;13.816;2024-03-06T14:02:14;14.77;;;7.35;;
17253;SDS011;32542;52.832;13.816;2024-03-06T14:05:17;15.15;;;6.90;;
17253;SDS011;32542;52.832;13.816;2024-03-06T14:08:26;11.95;;;6.55;;
17253;SDS011;32542;52.832;13.816;2024-03-06T14:11:30;12.73;;;6.93;;
17253;SDS011;32542;52.832;13.816;2024-03-06T14:14:33;17.02;;;6.28;;
17253;SDS011;32542;52.832;13.816;2024-03-06T14:17:36;11.18;;;6.38;;
17253;SDS011;32542;52.832;13.816;2024-03-06T14:20:39;12.23;;;6.90;;
17253;SDS011;32542;52.832;13.816;2024-03-06T14:23:42;10.77;;;6.10;;
17253;SDS011;32542;52.832;13.816;2024-03-06T14:26:46;12.15;;;6.57;;
17253;SDS011;32542;52.832;13.816;2024-03-06T14:29:50;18.40;;;6.80;;
17253;SDS011;32542;52.832;13.816;2024-03-06T14:32:55;10.25;;;6.18;;
17253;SDS011;32542;52.832;13.816;2024-03-06T14:35:58;10.75;;;6.35;;
17253;SDS011;32542;52.832;13.816;2024-03-06T14:39:02;15.02;;;6.80;;
17253;SDS011;32542;52.832;13.816;2024-03-06T14:42:06;13.98;;;6.75;;
17253;SDS011;32542;52.832;13.816;2024-03-06T14:45:09;20.95;;;6.95;;
17253;SDS011;32542;52.832;13.816;2024-03-06T14:48:12;17.23;;;7.68;;
17253;SDS011;32542;52.832;13.816;2024-03-06T14:51:16;12.13;;;6.65;;
17253;SDS011;32542;52.832;13.816;2024-03-06T14:54:19;13.07;;;6.75;;
17253;SDS011;32542;52.832;13.816;2024-03-06T14:57:25;13.07;;;6.72;;
17253;SDS011;32542;52.832;13.816;2024-03-06T15:00:28;15.88;;;6.93;;
17253;SDS011;32542;52.832;13.816;2024-03-06T15:03:32;18.05;;;6.15;;
17253;SDS011;32542;52.832;13.816;2024-03-06T15:06:35;11.40;;;6.15;;
17253;SDS011;32542;52.832;13.816;2024-03-06T15:09:38;17.90;;;6.40;;
17253;SDS011;32542;52.832;13.816;2024-03-06T15:12:42;15.07;;;6.15;;
17253;SDS011;32542;52.832;13.816;2024-03-06T15:15:47;17.27;;;6.75;;
17253;SDS011;32542;52.832;13.816;2024-03-06T15:18:50;9.63;;;5.97;;
17253;SDS011;32542;52.832;13.816;2024-03-06T15:21:57;11.93;;;6.18;;
17253;SDS011;32542;52.832;13.816;2024-03-06T15:25:04;11.30;;;6.28;;
17253;SDS011;32542;52.832;13.816;2024-03-06T15:28:09;14.38;;;5.90;;
17253;SDS011;32542;52.832;13.816;2024-03-06T15:31:12;14.18;;;6.15;;
17253;SDS011;32542;52.832;13.816;2024-03-06T15:34:15;10.63;;;5.30;;
17253;SDS011;32542;52.832;13.816;2024-03-06T15:37:18;11.93;;;5.80;;
17253;SDS011;32542;52.832;13.816;2024-03-06T15:40:23;9.82;;;5.53;;
17253;SDS011;32542;52.832;13.816;2024-03-06T15:43:27;11.43;;;6.00;;
17253;SDS011;32542;52.832;13.816;2024-03-06T15:46:30;11.30;;;6.35;;
17253;SDS011;32542;52.832;13.816;2024-03-06T15:49:34;10.15;;;5.53;;
17253;SDS011;32542;52.832;13.816;2024-03-06T15:52:37;14.40;;;5.82;;
17253;SDS011;32542;52.832;13.816;2024-03-06T15:55:40;12.52;;;6.03;;
17253;SDS011;32542;52.832;13.816;2024-03-06T15:58:45;10.30;;;5.63;;
17253;SDS011;32542;52.832;13.816;2024-03-06T16:01:48;13.75;;;6.18;;
17253;SDS011;32542;52.832;13.816;2024-03-06T16:04:51;13.63;;;5.80;;
17253;SDS011;32542;52.832;13.816;2024-03-06T16:07:54;14.98;;;5.50;;
17253;SDS011;32542;52.832;13.816;2024-03-06T16:11:06;12.45;;;5.70;;
17253;SDS011;32542;52.832;13.816;2024-03-06T16:14:10;12.38;;;6.25;;
17253;SDS011;32542;52.832;13.816;2024-03-06T16:17:14;7.97;;;5.47;;
17253;SDS011;32542;52.832;13.816;2024-03-06T16:20:17;13.50;;;5.78;;
17253;SDS011;32542;52.832;13.816;2024-03-06T16:23:19;10.48;;;5.75;;
17253;SDS011;32542;52.832;13.816;2024-03-06T16:26:27;10.25;;;5.38;;
17253;SDS011;32542;52.832;13.816;2024-03-06T16:29:31;9.15;;;5.45;;
17253;SDS011;32542;52.832;13.816;2024-03-06T16:32:34;8.32;;;5.28;;
17253;SDS011;32542;52.832;13.816;2024-03-06T16:35:37;7.65;;;5.18;;
17253;SDS011;32542;52.832;13.816;2024-03-06T16:38:40;9.15;;;5.45;;
17253;SDS011;32542;52.832;13.816;2024-03-06T16:41:43;9.23;;;5.40;;
17253;SDS011;32542;52.832;13.816;2024-03-06T16:44:48;9.38;;;5.63;;
17253;SDS011;32542;52.832;13.816;2024-03-06T16:47:51;10.32;;;5.60;;
17253;SDS011;32542;52.832;13.816;2024-03-06T16:50:54;14.38;;;5.97;;
17253;SDS011;32542;52.832;13.816;2024-03-06T16:53:57;7.00;;;5.13;;
17253;SDS011;32542;52.832;13.816;2024-03-06T16:57:01;8.98;;;5.53;;
17253;SDS011;32542;52.832;13.816;2024-03-06T17:00:06;9.10;;;4.68;;
17253;SDS011;32542;52.832;13.816;2024-03-06T17:03:10;9.50;;;5.07;;
17253;SDS011;32542;52.832;13.816;2024-03-06T17:06:13;8.20;;;5.65;;
17253;SDS011;32542;52.832;13.816;2024-03-06T17:09:16;8.38;;;5.38;;
17253;SDS011;32542;52.832;13.816;2024-03-06T17:12:19;8.85;;;5.30;;
17253;SDS011;32542;52.832;13.816;2024-03-06T17:15:23;9.35;;;5.22;;
17253;SDS011;32542;52.832;13.816;2024-03-06T17:18:26;7.97;;;5.18;;
17253;SDS011;32542;52.832;13.816;2024-03-06T17:21:29;8.63;;;5.15;;
17253;SDS011;32542;52.832;13.816;2024-03-06T17:24:38;8.15;;;4.88;;
17253;SDS011;32542;52.832;13.816;2024-03-06T17:27:41;9.20;;;5.47;;
17253;SDS011;32542;52.832;13.816;2024-03-06T17:30:46;9.73;;;5.05;;
17253;SDS011;32542;52.832;13.816;2024-03-06T17:33:48;12.88;;;5.47;;
17253;SDS011;32542;52.832;13.816;2024-03-06T17:36:51;12.93;;;5.20;;
17253;SDS011;32542;52.832;13.816;2024-03-06T17:39:54;17.80;;;5.43;;
17253;SDS011;32542;52.832;13.816;2024-03-06T17:42:57;12.73;;;4.95;;
17253;SDS011;32542;52.832;13.816;2024-03-06T17:46:01;11.48;;;4.97;;
17253;SDS011;32542;52.832;13.816;2024-03-06T17:49:04;13.32;;;5.45;;
17253;SDS011;32542;52.832;13.816;2024-03-06T17:52:07;12.07;;;5.07;;
17253;SDS011;32542;52.832;13.816;2024-03-06T17:55:10;9.40;;;4.60;;
17253;SDS011;32542;52.832;13.816;2024-03-06T17:58:13;9.50;;;5.18;;
17253;SDS011;32542;52.832;13.816;2024-03-06T18:01:17;11.13;;;5.20;;
17253;SDS011;32542;52.832;13.816;2024-03-06T18:04:21;10.15;;;4.82;;
17253;SDS011;32542;52.832;13.816;2024-03-06T18:07:25;13.50;;;4.72;;
17253;SDS011;32542;52.832;13.816;2024-03-06T18:10:28;8.02;;;4.13;;